Flight Track Log - Related Links

Times and Time Zones

All times are in EDT time to prevent confusion due to time zone crossing. See the UCA3597 flight status page for this flight to view local times or setup timezone preferences in your user account.


Time Position Orientation Groundspeed Altitude Reporting Facility
EDT Latitude Longitude Course Direction KTS MPH feet Rate Location/Type
Sun 05:49:00 PM 39.2749 -77.3180 19° North  Level Estimated
Sun 05:50:00 PM 39.3295 -77.2942 19° North  Level Estimated
Sun 05:51:00 PM 39.3841 -77.2704 19° North  Level Estimated
Sun 05:52:00 PM 39.4386 -77.2465 19° North  Level Estimated
Sun 05:53:00 PM 39.4932 -77.2226 19° North  Level Estimated
Sun 05:54:00 PM 39.5477 -77.1987 19° North  Level Estimated
Sun 05:55:00 PM 39.6023 -77.1747 19° North  Level Estimated
Sun 05:56:00 PM 39.6568 -77.1507 19° North  Level Estimated
Sun 05:57:00 PM 39.7113 -77.1266 19° North  Level Estimated
Sun 05:58:00 PM 39.7659 -77.1025 19° North  Level Estimated
Sun 05:59:00 PM 39.8204 -77.0784 19° North  Level Estimated
Sun 06:00:00 PM 39.8749 -77.0542 19° North  Level Estimated
Sun 06:01:00 PM 39.9294 -77.0300 19° North  Level Estimated
Sun 06:02:00 PM 39.9839 -77.0058 19° North  Level Estimated
Sun 06:03:00 PM 40.0384 -76.9815 19° North  Level Estimated
Sun 06:04:00 PM 40.0929 -76.9572 19° North  Level Estimated
Sun 06:05:00 PM 40.1474 -76.9328 19° North  Level Estimated
Sun 06:06:00 PM 40.2019 -76.9084 19° North  Level Estimated
Sun 06:07:00 PM 40.2564 -76.8840 19° North  Level Estimated
Sun 06:08:00 PM 40.3109 -76.8595 19° North  Level Estimated
Sun 06:09:00 PM 40.3653 -76.8350 19° North  Level Estimated
Sun 06:10:00 PM 40.4198 -76.8104 19° North  Level Estimated
Sun 06:11:00 PM 40.4743 -76.7858 19° North  Level Estimated
Sun 06:12:00 PM 40.5287 -76.7612 19° North  Level Estimated
Sun 06:13:00 PM 40.5832 -76.7365 19° North  Level Estimated
Sun 06:14:00 PM 40.6376 -76.7118 19° North  Level Estimated
Sun 06:15:00 PM 40.6921 -76.6870 19° North  Level Estimated
Sun 06:16:00 PM 40.7465 -76.6622 19° North  Level Estimated
Sun 06:17:00 PM 40.8009 -76.6374 19° North  Level Estimated
Sun 06:18:00 PM 40.8554 -76.6125 19° North  Level Estimated
Sun 06:19:00 PM 40.9098 -76.5876 19° North  Level Estimated
Sun 06:20:00 PM 40.9642 -76.5626 19° North  Level Estimated
Sun 06:21:00 PM 41.0186 -76.5376 19° North  Level Estimated
Sun 06:22:00 PM 41.0730 -76.5126 19° North  Level Estimated
Sun 06:23:00 PM 41.1274 -76.4875 19° North  Level Estimated
Sun 06:24:00 PM 41.1818 -76.4624 19° North  Level Estimated
Sun 06:25:00 PM 41.2362 -76.4372 19° North  Level Estimated
Sun 06:26:00 PM 41.2906 -76.4120 19° North  Level Estimated
Sun 06:27:00 PM 41.3450 -76.3867 19° North  Level Estimated
Sun 06:28:00 PM 41.3993 -76.3614 19° North  Level Estimated
Sun 06:29:00 PM 41.4537 -76.3361 19° North  Level Estimated
Sun 06:30:00 PM 41.5081 -76.3107 19° North  Level Estimated
Sun 06:31:00 PM 41.5624 -76.2853 19° North  Level Estimated
Sun 06:32:00 PM 41.6168 -76.2598 19° North  Level Estimated
Sun 06:33:00 PM 41.6711 -76.2343 19° North  Level Estimated
Sun 06:34:00 PM 41.7254 -76.2088 19° North  Level Estimated
Sun 06:35:00 PM 41.7798 -76.1832 19° North  Level Estimated
Sun 06:36:00 PM 41.8341 -76.1575 19° North  Level Estimated
Sun 06:37:00 PM 41.8884 -76.1319 19° North  Level Estimated
Sun 06:38:00 PM 41.9427 -76.1061 19° North  Level Estimated
Sun 06:39:00 PM 41.9971 -76.0804 19° North  Level Estimated
Sun 06:40:00 PM 42.0514 -76.0545 19° North  Level Estimated
Sun 06:41:00 PM 42.1057 -76.0287 19° North  Level Estimated
Sun 06:42:00 PM 42.1600 -76.0028 19° North  Level Estimated
Sun 06:43:00 PM 42.2084 -75.9796 19° North  Level Estimated
Sun 06:44:00 PM 42.2084 -75.9796 35° Northeast  Level Estimated
Sun 06:45:00 PM 42.2084 -75.9796 35° Northeast  Level Estimated
Sun 06:46:00 PM 42.2084 -75.9796 35° Northeast  Level Estimated
Sun 06:47:00 PM 42.2084 -75.9796 35° Northeast  Level Estimated
Sun 06:48:00 PM 42.2084 -75.9796 35° Northeast  Level Estimated
Sun 06:49:00 PM 42.2084 -75.9796 35° Northeast  Level Estimated
Sun 06:50:00 PM 42.2084 -75.9796 35° Northeast  Level Estimated
Sun 06:51:00 PM 42.2084 -75.9796 35° Northeast  Level Estimated
Sun 06:52:00 PM 42.2084 -75.9796 35° Northeast  Level Estimated
Sun 06:53:00 PM 42.2084 -75.9796 35° Northeast  Level Estimated
Sun 06:54:00 PM 42.2084 -75.9796 35° Northeast  Level Estimated
Sun 06:55:00 PM 42.2084 -75.9796 35° Northeast  Level Estimated
Sun 06:56:00 PM 42.2084 -75.9796 35° Northeast  Level Estimated
Sun 06:57:00 PM 42.2084 -75.9796 35° Northeast  Level Estimated
Sun 06:58:00 PM 42.2084 -75.9796 35° Northeast  Level Estimated
Sun 06:59:00 PM 42.2084 -75.9796 35° Northeast  Level Estimated

Login

Don't have an account? Register now (free) for customized features, flight alerts, and more!